sensor_id;sensor_type;location;lat;lon;timestamp;P1;durP1;ratioP1;P2;durP2;ratioP2
83141;SDS011;75194;51.180;5.972;2024-01-30T00:01:15;16.55;;;7.93;;
83141;SDS011;75194;51.180;5.972;2024-01-30T00:03:40;17.90;;;7.35;;
83141;SDS011;75194;51.180;5.972;2024-01-30T00:06:06;15.43;;;8.18;;
83141;SDS011;75194;51.180;5.972;2024-01-30T00:08:33;15.35;;;7.70;;
83141;SDS011;75194;51.180;5.972;2024-01-30T00:11:00;16.13;;;8.48;;
83141;SDS011;75194;51.180;5.972;2024-01-30T00:13:26;19.15;;;8.05;;
83141;SDS011;75194;51.180;5.972;2024-01-30T00:15:52;16.30;;;8.05;;
83141;SDS011;75194;51.180;5.972;2024-01-30T00:18:18;17.05;;;8.18;;
83141;SDS011;75194;51.180;5.972;2024-01-30T00:20:44;16.17;;;7.50;;
83141;SDS011;75194;51.180;5.972;2024-01-30T00:23:10;15.38;;;7.40;;
83141;SDS011;75194;51.180;5.972;2024-01-30T00:25:36;17.42;;;8.02;;
83141;SDS011;75194;51.180;5.972;2024-01-30T00:28:01;14.73;;;7.38;;
83141;SDS011;75194;51.180;5.972;2024-01-30T00:30:27;16.95;;;7.57;;
83141;SDS011;75194;51.180;5.972;2024-01-30T00:32:53;16.08;;;7.82;;
83141;SDS011;75194;51.180;5.972;2024-01-30T00:35:19;15.10;;;7.82;;
83141;SDS011;75194;51.180;5.972;2024-01-30T00:37:45;15.75;;;8.18;;
83141;SDS011;75194;51.180;5.972;2024-01-30T00:40:10;15.77;;;8.43;;
83141;SDS011;75194;51.180;5.972;2024-01-30T00:42:41;16.10;;;7.55;;
83141;SDS011;75194;51.180;5.972;2024-01-30T00:45:11;17.23;;;8.18;;
83141;SDS011;75194;51.180;5.972;2024-01-30T00:47:40;17.15;;;8.52;;
83141;SDS011;75194;51.180;5.972;2024-01-30T00:50:06;16.98;;;7.60;;
83141;SDS011;75194;51.180;5.972;2024-01-30T00:52:32;13.30;;;7.22;;
83141;SDS011;75194;51.180;5.972;2024-01-30T00:54:58;17.15;;;8.10;;
83141;SDS011;75194;51.180;5.972;2024-01-30T00:57:24;15.57;;;7.65;;
83141;SDS011;75194;51.180;5.972;2024-01-30T00:59:50;14.80;;;7.78;;
83141;SDS011;75194;51.180;5.972;2024-01-30T01:02:15;13.80;;;7.05;;
83141;SDS011;75194;51.180;5.972;2024-01-30T01:04:42;15.77;;;8.45;;
83141;SDS011;75194;51.180;5.972;2024-01-30T01:07:09;14.43;;;7.30;;
83141;SDS011;75194;51.180;5.972;2024-01-30T01:09:35;17.10;;;8.32;;
83141;SDS011;75194;51.180;5.972;2024-01-30T01:12:01;15.48;;;7.50;;
83141;SDS011;75194;51.180;5.972;2024-01-30T01:14:27;14.95;;;6.78;;
83141;SDS011;75194;51.180;5.972;2024-01-30T01:16:52;16.38;;;8.13;;
83141;SDS011;75194;51.180;5.972;2024-01-30T01:19:18;14.95;;;7.35;;
83141;SDS011;75194;51.180;5.972;2024-01-30T01:21:43;16.20;;;7.25;;
83141;SDS011;75194;51.180;5.972;2024-01-30T01:24:09;15.82;;;6.93;;
83141;SDS011;75194;51.180;5.972;2024-01-30T01:26:35;15.57;;;6.97;;
83141;SDS011;75194;51.180;5.972;2024-01-30T01:29:00;15.27;;;7.50;;
83141;SDS011;75194;51.180;5.972;2024-01-30T01:31:26;14.25;;;7.15;;
83141;SDS011;75194;51.180;5.972;2024-01-30T01:33:54;15.85;;;7.13;;
83141;SDS011;75194;51.180;5.972;2024-01-30T01:36:20;14.23;;;7.18;;
83141;SDS011;75194;51.180;5.972;2024-01-30T01:38:46;15.10;;;7.63;;
83141;SDS011;75194;51.180;5.972;2024-01-30T01:41:11;13.95;;;6.95;;
83141;SDS011;75194;51.180;5.972;2024-01-30T01:43:37;12.07;;;6.57;;
83141;SDS011;75194;51.180;5.972;2024-01-30T01:46:06;15.35;;;6.47;;
83141;SDS011;75194;51.180;5.972;2024-01-30T01:48:33;13.77;;;7.07;;
83141;SDS011;75194;51.180;5.972;2024-01-30T01:50:58;14.30;;;7.20;;
83141;SDS011;75194;51.180;5.972;2024-01-30T01:53:24;15.85;;;6.32;;
83141;SDS011;75194;51.180;5.972;2024-01-30T01:55:51;17.02;;;6.72;;
83141;SDS011;75194;51.180;5.972;2024-01-30T02:00:45;14.88;;;7.10;;
83141;SDS011;75194;51.180;5.972;2024-01-30T02:03:11;14.10;;;6.28;;
83141;SDS011;75194;51.180;5.972;2024-01-30T02:05:39;12.45;;;6.22;;
83141;SDS011;75194;51.180;5.972;2024-01-30T02:08:06;16.58;;;6.97;;
83141;SDS011;75194;51.180;5.972;2024-01-30T02:10:33;14.73;;;6.93;;
83141;SDS011;75194;51.180;5.972;2024-01-30T02:12:59;13.20;;;6.43;;
83141;SDS011;75194;51.180;5.972;2024-01-30T02:15:25;14.35;;;6.30;;
83141;SDS011;75194;51.180;5.972;2024-01-30T02:17:50;13.65;;;6.50;;
83141;SDS011;75194;51.180;5.972;2024-01-30T02:20:16;14.32;;;5.95;;
83141;SDS011;75194;51.180;5.972;2024-01-30T02:22:42;14.82;;;6.22;;
83141;SDS011;75194;51.180;5.972;2024-01-30T02:25:08;11.98;;;5.97;;
83141;SDS011;75194;51.180;5.972;2024-01-30T02:27:34;14.85;;;6.25;;
83141;SDS011;75194;51.180;5.972;2024-01-30T02:30:00;11.77;;;6.35;;
83141;SDS011;75194;51.180;5.972;2024-01-30T02:32:25;11.63;;;5.70;;
83141;SDS011;75194;51.180;5.972;2024-01-30T02:34:51;12.80;;;6.10;;
83141;SDS011;75194;51.180;5.972;2024-01-30T02:37:16;11.40;;;5.22;;
83141;SDS011;75194;51.180;5.972;2024-01-30T02:39:42;12.07;;;6.20;;
83141;SDS011;75194;51.180;5.972;2024-01-30T02:42:08;11.98;;;5.80;;
83141;SDS011;75194;51.180;5.972;2024-01-30T02:44:33;13.02;;;5.68;;
83141;SDS011;75194;51.180;5.972;2024-01-30T02:46:59;12.15;;;5.68;;
83141;SDS011;75194;51.180;5.972;2024-01-30T02:49:24;12.65;;;5.75;;
83141;SDS011;75194;51.180;5.972;2024-01-30T02:51:51;12.80;;;5.28;;
83141;SDS011;75194;51.180;5.972;2024-01-30T02:54:17;11.88;;;5.82;;
83141;SDS011;75194;51.180;5.972;2024-01-30T02:56:43;12.57;;;5.53;;
83141;SDS011;75194;51.180;5.972;2024-01-30T02:59:08;12.10;;;5.22;;
83141;SDS011;75194;51.180;5.972;2024-01-30T03:01:41;11.43;;;5.65;;
83141;SDS011;75194;51.180;5.972;2024-01-30T03:04:11;11.30;;;5.47;;
83141;SDS011;75194;51.180;5.972;2024-01-30T03:06:37;12.93;;;5.55;;
83141;SDS011;75194;51.180;5.972;2024-01-30T03:09:02;12.50;;;5.53;;
83141;SDS011;75194;51.180;5.972;2024-01-30T03:11:29;12.25;;;6.38;;
83141;SDS011;75194;51.180;5.972;2024-01-30T03:13:55;13.73;;;5.65;;
83141;SDS011;75194;51.180;5.972;2024-01-30T03:16:21;12.02;;;5.18;;
83141;SDS011;75194;51.180;5.972;2024-01-30T03:18:47;11.18;;;4.95;;
83141;SDS011;75194;51.180;5.972;2024-01-30T03:21:13;11.63;;;5.50;;
83141;SDS011;75194;51.180;5.972;2024-01-30T03:23:39;12.52;;;4.70;;
83141;SDS011;75194;51.180;5.972;2024-01-30T03:26:05;11.07;;;4.60;;
83141;SDS011;75194;51.180;5.972;2024-01-30T03:28:31;10.68;;;4.60;;
83141;SDS011;75194;51.180;5.972;2024-01-30T03:30:57;12.02;;;5.35;;
83141;SDS011;75194;51.180;5.972;2024-01-30T03:33:22;11.70;;;4.70;;
83141;SDS011;75194;51.180;5.972;2024-01-30T03:35:48;12.07;;;4.72;;
83141;SDS011;75194;51.180;5.972;2024-01-30T03:38:14;10.20;;;5.20;;
83141;SDS011;75194;51.180;5.972;2024-01-30T03:40:39;12.80;;;5.68;;
83141;SDS011;75194;51.180;5.972;2024-01-30T03:43:05;12.70;;;4.88;;
83141;SDS011;75194;51.180;5.972;2024-01-30T03:45:30;9.75;;;4.47;;
83141;SDS011;75194;51.180;5.972;2024-01-30T03:47:56;12.05;;;5.05;;
83141;SDS011;75194;51.180;5.972;2024-01-30T03:50:22;10.38;;;4.82;;
83141;SDS011;75194;51.180;5.972;2024-01-30T03:52:47;11.05;;;4.97;;
83141;SDS011;75194;51.180;5.972;2024-01-30T03:55:13;11.38;;;5.55;;
83141;SDS011;75194;51.180;5.972;2024-01-30T03:57:39;10.07;;;4.25;;
83141;SDS011;75194;51.180;5.972;2024-01-30T04:00:04;10.52;;;4.80;;
83141;SDS011;75194;51.180;5.972;2024-01-30T04:02:30;11.70;;;4.35;;
83141;SDS011;75194;51.180;5.972;2024-01-30T04:04:56;11.65;;;4.75;;
83141;SDS011;75194;51.180;5.972;2024-01-30T04:07:21;9.85;;;4.30;;
83141;SDS011;75194;51.180;5.972;2024-01-30T04:09:47;13.20;;;4.82;;
83141;SDS011;75194;51.180;5.972;2024-01-30T04:12:13;10.15;;;4.47;;
83141;SDS011;75194;51.180;5.972;2024-01-30T04:14:39;10.02;;;4.75;;
83141;SDS011;75194;51.180;5.972;2024-01-30T04:17:04;12.38;;;5.65;;
83141;SDS011;75194;51.180;5.972;2024-01-30T04:19:30;10.77;;;4.97;;
83141;SDS011;75194;51.180;5.972;2024-01-30T04:21:55;9.45;;;4.40;;
83141;SDS011;75194;51.180;5.972;2024-01-30T04:24:21;9.27;;;4.78;;
83141;SDS011;75194;51.180;5.972;2024-01-30T04:26:47;9.63;;;4.68;;
83141;SDS011;75194;51.180;5.972;2024-01-30T04:29:12;11.75;;;4.95;;
83141;SDS011;75194;51.180;5.972;2024-01-30T04:31:38;10.07;;;4.03;;
83141;SDS011;75194;51.180;5.972;2024-01-30T04:34:03;10.65;;;4.57;;
83141;SDS011;75194;51.180;5.972;2024-01-30T04:36:29;11.30;;;4.68;;
83141;SDS011;75194;51.180;5.972;2024-01-30T04:38:55;9.23;;;4.57;;
83141;SDS011;75194;51.180;5.972;2024-01-30T04:41:20;9.52;;;4.32;;
83141;SDS011;75194;51.180;5.972;2024-01-30T04:43:46;12.70;;;4.50;;
83141;SDS011;75194;51.180;5.972;2024-01-30T04:46:11;10.43;;;4.30;;
83141;SDS011;75194;51.180;5.972;2024-01-30T04:48:37;10.43;;;4.35;;
83141;SDS011;75194;51.180;5.972;2024-01-30T04:51:03;9.73;;;4.25;;
83141;SDS011;75194;51.180;5.972;2024-01-30T04:53:29;11.02;;;4.30;;
83141;SDS011;75194;51.180;5.972;2024-01-30T04:55:56;9.15;;;4.20;;
83141;SDS011;75194;51.180;5.972;2024-01-30T04:58:21;9.88;;;4.20;;
83141;SDS011;75194;51.180;5.972;2024-01-30T05:00:47;9.52;;;4.05;;
83141;SDS011;75194;51.180;5.972;2024-01-30T05:03:16;9.23;;;4.30;;
83141;SDS011;75194;51.180;5.972;2024-01-30T05:05:42;10.80;;;4.38;;
83141;SDS011;75194;51.180;5.972;2024-01-30T05:08:08;9.00;;;4.28;;
83141;SDS011;75194;51.180;5.972;2024-01-30T05:10:34;9.88;;;4.88;;
83141;SDS011;75194;51.180;5.972;2024-01-30T05:12:59;10.77;;;4.95;;
83141;SDS011;75194;51.180;5.972;2024-01-30T05:15:25;9.85;;;4.05;;
83141;SDS011;75194;51.180;5.972;2024-01-30T05:17:50;10.75;;;4.35;;
83141;SDS011;75194;51.180;5.972;2024-01-30T05:20:16;9.48;;;4.65;;
83141;SDS011;75194;51.180;5.972;2024-01-30T05:22:42;10.52;;;4.20;;
83141;SDS011;75194;51.180;5.972;2024-01-30T05:25:10;9.90;;;4.20;;
83141;SDS011;75194;51.180;5.972;2024-01-30T05:27:37;10.93;;;4.60;;
83141;SDS011;75194;51.180;5.972;2024-01-30T05:30:02;10.65;;;4.55;;
83141;SDS011;75194;51.180;5.972;2024-01-30T05:32:29;10.20;;;4.40;;
83141;SDS011;75194;51.180;5.972;2024-01-30T05:34:55;10.05;;;4.50;;
83141;SDS011;75194;51.180;5.972;2024-01-30T05:37:20;9.65;;;3.95;;
83141;SDS011;75194;51.180;5.972;2024-01-30T05:39:46;10.02;;;3.60;;
83141;SDS011;75194;51.180;5.972;2024-01-30T05:42:11;10.77;;;4.05;;
83141;SDS011;75194;51.180;5.972;2024-01-30T05:44:37;8.85;;;3.97;;
83141;SDS011;75194;51.180;5.972;2024-01-30T05:47:03;13.50;;;4.25;;
83141;SDS011;75194;51.180;5.972;2024-01-30T05:49:29;13.88;;;4.30;;
83141;SDS011;75194;51.180;5.972;2024-01-30T05:51:54;9.82;;;4.28;;
83141;SDS011;75194;51.180;5.972;2024-01-30T05:54:20;9.57;;;3.78;;
83141;SDS011;75194;51.180;5.972;2024-01-30T05:56:46;9.70;;;4.25;;
83141;SDS011;75194;51.180;5.972;2024-01-30T05:59:12;10.40;;;4.10;;
83141;SDS011;75194;51.180;5.972;2024-01-30T06:01:37;8.90;;;3.83;;
83141;SDS011;75194;51.180;5.972;2024-01-30T06:04:03;9.48;;;3.65;;
83141;SDS011;75194;51.180;5.972;2024-01-30T06:06:28;10.00;;;3.60;;
83141;SDS011;75194;51.180;5.972;2024-01-30T06:08:54;9.70;;;4.00;;
83141;SDS011;75194;51.180;5.972;2024-01-30T06:11:21;9.15;;;3.63;;
83141;SDS011;75194;51.180;5.972;2024-01-30T06:13:46;9.40;;;3.70;;
83141;SDS011;75194;51.180;5.972;2024-01-30T06:16:12;10.18;;;3.60;;
83141;SDS011;75194;51.180;5.972;2024-01-30T06:18:38;10.45;;;3.67;;
83141;SDS011;75194;51.180;5.972;2024-01-30T06:21:04;9.02;;;4.82;;
83141;SDS011;75194;51.180;5.972;2024-01-30T06:23:30;9.05;;;3.42;;
83141;SDS011;75194;51.180;5.972;2024-01-30T06:25:55;9.57;;;3.72;;
83141;SDS011;75194;51.180;5.972;2024-01-30T06:28:21;8.30;;;3.88;;
83141;SDS011;75194;51.180;5.972;2024-01-30T06:30:47;8.27;;;3.45;;
83141;SDS011;75194;51.180;5.972;2024-01-30T06:33:12;8.73;;;3.55;;
83141;SDS011;75194;51.180;5.972;2024-01-30T06:35:38;9.43;;;3.60;;
83141;SDS011;75194;51.180;5.972;2024-01-30T06:38:05;9.30;;;3.65;;
83141;SDS011;75194;51.180;5.972;2024-01-30T06:40:31;9.73;;;3.42;;
83141;SDS011;75194;51.180;5.972;2024-01-30T06:42:57;9.25;;;3.42;;
83141;SDS011;75194;51.180;5.972;2024-01-30T06:45:22;8.38;;;4.45;;
83141;SDS011;75194;51.180;5.972;2024-01-30T06:47:48;8.32;;;3.10;;
83141;SDS011;75194;51.180;5.972;2024-01-30T06:50:14;8.15;;;3.35;;
83141;SDS011;75194;51.180;5.972;2024-01-30T06:52:39;8.05;;;3.47;;
83141;SDS011;75194;51.180;5.972;2024-01-30T06:55:05;7.88;;;3.20;;
83141;SDS011;75194;51.180;5.972;2024-01-30T06:57:31;9.80;;;3.35;;
83141;SDS011;75194;51.180;5.972;2024-01-30T06:59:57;8.52;;;3.10;;
83141;SDS011;75194;51.180;5.972;2024-01-30T07:02:23;7.88;;;3.28;;
83141;SDS011;75194;51.180;5.972;2024-01-30T07:04:48;7.32;;;3.08;;
83141;SDS011;75194;51.180;5.972;2024-01-30T07:07:14;9.88;;;3.38;;
83141;SDS011;75194;51.180;5.972;2024-01-30T07:09:40;8.82;;;3.15;;
83141;SDS011;75194;51.180;5.972;2024-01-30T07:12:06;8.73;;;3.28;;
83141;SDS011;75194;51.180;5.972;2024-01-30T07:14:32;9.90;;;3.65;;
83141;SDS011;75194;51.180;5.972;2024-01-30T07:16:58;9.18;;;3.80;;
83141;SDS011;75194;51.180;5.972;2024-01-30T07:19:23;8.00;;;3.17;;
83141;SDS011;75194;51.180;5.972;2024-01-30T07:21:49;10.65;;;3.53;;
83141;SDS011;75194;51.180;5.972;2024-01-30T07:24:14;9.50;;;3.60;;
83141;SDS011;75194;51.180;5.972;2024-01-30T07:26:40;7.40;;;3.28;;
83141;SDS011;75194;51.180;5.972;2024-01-30T07:29:06;10.60;;;3.65;;
83141;SDS011;75194;51.180;5.972;2024-01-30T07:31:31;7.45;;;3.00;;
83141;SDS011;75194;51.180;5.972;2024-01-30T07:33:57;8.13;;;3.03;;
83141;SDS011;75194;51.180;5.972;2024-01-30T07:36:23;8.88;;;3.35;;
83141;SDS011;75194;51.180;5.972;2024-01-30T07:38:48;7.43;;;2.95;;
83141;SDS011;75194;51.180;5.972;2024-01-30T07:41:14;8.55;;;3.72;;
83141;SDS011;75194;51.180;5.972;2024-01-30T07:43:39;9.50;;;3.70;;
83141;SDS011;75194;51.180;5.972;2024-01-30T07:46:05;8.43;;;3.60;;
83141;SDS011;75194;51.180;5.972;2024-01-30T07:48:31;10.15;;;3.83;;
83141;SDS011;75194;51.180;5.972;2024-01-30T07:50:59;10.35;;;3.72;;
83141;SDS011;75194;51.180;5.972;2024-01-30T07:53:24;10.60;;;4.28;;
83141;SDS011;75194;51.180;5.972;2024-01-30T07:55:50;9.77;;;3.33;;
83141;SDS011;75194;51.180;5.972;2024-01-30T07:58:16;9.95;;;4.10;;
83141;SDS011;75194;51.180;5.972;2024-01-30T08:00:41;8.95;;;3.75;;
83141;SDS011;75194;51.180;5.972;2024-01-30T08:03:07;10.13;;;3.65;;
83141;SDS011;75194;51.180;5.972;2024-01-30T08:05:33;10.15;;;4.10;;
83141;SDS011;75194;51.180;5.972;2024-01-30T08:07:58;10.55;;;3.72;;
83141;SDS011;75194;51.180;5.972;2024-01-30T08:10:24;8.65;;;4.10;;
83141;SDS011;75194;51.180;5.972;2024-01-30T08:12:50;8.95;;;3.67;;
83141;SDS011;75194;51.180;5.972;2024-01-30T08:15:15;9.57;;;3.90;;
83141;SDS011;75194;51.180;5.972;2024-01-30T08:17:41;8.55;;;3.55;;
83141;SDS011;75194;51.180;5.972;2024-01-30T08:20:07;8.00;;;3.35;;
83141;SDS011;75194;51.180;5.972;2024-01-30T08:22:38;10.07;;;4.00;;
83141;SDS011;75194;51.180;5.972;2024-01-30T08:25:04;9.20;;;3.55;;
83141;SDS011;75194;51.180;5.972;2024-01-30T08:27:31;9.60;;;4.78;;
83141;SDS011;75194;51.180;5.972;2024-01-30T08:29:56;10.27;;;4.78;;
83141;SDS011;75194;51.180;5.972;2024-01-30T08:32:22;10.48;;;4.38;;
83141;SDS011;75194;51.180;5.972;2024-01-30T08:34:49;9.90;;;4.13;;
83141;SDS011;75194;51.180;5.972;2024-01-30T08:37:14;7.60;;;3.15;;
83141;SDS011;75194;51.180;5.972;2024-01-30T08:39:41;10.73;;;4.20;;
83141;SDS011;75194;51.180;5.972;2024-01-30T08:42:09;9.45;;;4.68;;
83141;SDS011;75194;51.180;5.972;2024-01-30T08:44:35;9.55;;;3.90;;
83141;SDS011;75194;51.180;5.972;2024-01-30T08:47:01;9.30;;;4.38;;
83141;SDS011;75194;51.180;5.972;2024-01-30T08:49:26;10.07;;;4.30;;
83141;SDS011;75194;51.180;5.972;2024-01-30T08:51:52;10.88;;;4.22;;
83141;SDS011;75194;51.180;5.972;2024-01-30T08:54:18;9.70;;;4.20;;
83141;SDS011;75194;51.180;5.972;2024-01-30T08:56:44;10.02;;;5.20;;
83141;SDS011;75194;51.180;5.972;2024-01-30T08:59:10;8.93;;;3.78;;
83141;SDS011;75194;51.180;5.972;2024-01-30T09:01:36;9.27;;;3.78;;
83141;SDS011;75194;51.180;5.972;2024-01-30T09:04:02;11.95;;;3.70;;
83141;SDS011;75194;51.180;5.972;2024-01-30T09:06:27;12.75;;;4.10;;
83141;SDS011;75194;51.180;5.972;2024-01-30T09:08:54;9.45;;;3.97;;
83141;SDS011;75194;51.180;5.972;2024-01-30T09:11:19;10.82;;;4.28;;
83141;SDS011;75194;51.180;5.972;2024-01-30T09:13:45;12.30;;;4.50;;
83141;SDS011;75194;51.180;5.972;2024-01-30T09:16:11;9.40;;;3.85;;
83141;SDS011;75194;51.180;5.972;2024-01-30T09:18:37;9.10;;;4.00;;
83141;SDS011;75194;51.180;5.972;2024-01-30T09:21:02;9.73;;;3.63;;
83141;SDS011;75194;51.180;5.972;2024-01-30T09:23:28;10.82;;;4.07;;
83141;SDS011;75194;51.180;5.972;2024-01-30T09:25:54;9.95;;;3.92;;
83141;SDS011;75194;51.180;5.972;2024-01-30T09:28:20;10.73;;;4.43;;
83141;SDS011;75194;51.180;5.972;2024-01-30T09:30:46;8.55;;;3.92;;
83141;SDS011;75194;51.180;5.972;2024-01-30T09:33:11;11.02;;;4.13;;
83141;SDS011;75194;51.180;5.972;2024-01-30T09:35:37;11.98;;;4.00;;
83141;SDS011;75194;51.180;5.972;2024-01-30T09:38:03;12.20;;;4.80;;
83141;SDS011;75194;51.180;5.972;2024-01-30T09:40:28;9.10;;;3.53;;
83141;SDS011;75194;51.180;5.972;2024-01-30T09:42:54;10.98;;;4.15;;
83141;SDS011;75194;51.180;5.972;2024-01-30T09:45:23;10.63;;;3.95;;
83141;SDS011;75194;51.180;5.972;2024-01-30T09:47:50;11.40;;;4.15;;
83141;SDS011;75194;51.180;5.972;2024-01-30T09:50:16;9.68;;;4.22;;
83141;SDS011;75194;51.180;5.972;2024-01-30T09:52:45;8.35;;;4.00;;
83141;SDS011;75194;51.180;5.972;2024-01-30T09:55:12;8.48;;;3.90;;
83141;SDS011;75194;51.180;5.972;2024-01-30T09:57:38;9.40;;;3.60;;
83141;SDS011;75194;51.180;5.972;2024-01-30T10:00:04;10.82;;;5.32;;
83141;SDS011;75194;51.180;5.972;2024-01-30T10:02:33;14.90;;;4.80;;
83141;SDS011;75194;51.180;5.972;2024-01-30T10:05:02;8.68;;;4.28;;
83141;SDS011;75194;51.180;5.972;2024-01-30T10:07:28;11.75;;;5.43;;
83141;SDS011;75194;51.180;5.972;2024-01-30T10:09:55;9.63;;;4.03;;
83141;SDS011;75194;51.180;5.972;2024-01-30T10:12:21;10.60;;;4.25;;
83141;SDS011;75194;51.180;5.972;2024-01-30T10:14:47;10.23;;;4.00;;
83141;SDS011;75194;51.180;5.972;2024-01-30T10:17:13;11.48;;;4.75;;
83141;SDS011;75194;51.180;5.972;2024-01-30T10:19:39;11.80;;;4.32;;
83141;SDS011;75194;51.180;5.972;2024-01-30T10:24:33;9.65;;;3.90;;
83141;SDS011;75194;51.180;5.972;2024-01-30T10:26:59;10.55;;;4.25;;
83141;SDS011;75194;51.180;5.972;2024-01-30T10:29:25;10.63;;;4.05;;
83141;SDS011;75194;51.180;5.972;2024-01-30T10:31:58;10.02;;;4.05;;
83141;SDS011;75194;51.180;5.972;2024-01-30T10:36:51;11.75;;;4.35;;
83141;SDS011;75194;51.180;5.972;2024-01-30T10:39:26;9.23;;;3.78;;
83141;SDS011;75194;51.180;5.972;2024-01-30T10:41:54;9.23;;;4.35;;
83141;SDS011;75194;51.180;5.972;2024-01-30T10:44:23;9.70;;;4.65;;
83141;SDS011;75194;51.180;5.972;2024-01-30T10:46:51;11.20;;;3.90;;
83141;SDS011;75194;51.180;5.972;2024-01-30T10:49:28;11.52;;;4.65;;
83141;SDS011;75194;51.180;5.972;2024-01-30T10:51:54;10.75;;;4.20;;
83141;SDS011;75194;51.180;5.972;2024-01-30T10:54:21;11.32;;;3.92;;
83141;SDS011;75194;51.180;5.972;2024-01-30T10:56:48;10.77;;;4.40;;
83141;SDS011;75194;51.180;5.972;2024-01-30T10:59:14;13.50;;;4.18;;
83141;SDS011;75194;51.180;5.972;2024-01-30T11:01:40;10.95;;;4.20;;
83141;SDS011;75194;51.180;5.972;2024-01-30T11:04:07;11.95;;;4.38;;
83141;SDS011;75194;51.180;5.972;2024-01-30T11:06:40;10.98;;;4.90;;
83141;SDS011;75194;51.180;5.972;2024-01-30T11:09:10;9.40;;;3.88;;
83141;SDS011;75194;51.180;5.972;2024-01-30T11:14:25;10.60;;;4.40;;
83141;SDS011;75194;51.180;5.972;2024-01-30T11:16:51;10.68;;;4.75;;
83141;SDS011;75194;51.180;5.972;2024-01-30T11:19:24;10.50;;;3.40;;
83141;SDS011;75194;51.180;5.972;2024-01-30T11:21:51;11.75;;;3.60;;
83141;SDS011;75194;51.180;5.972;2024-01-30T11:24:22;11.48;;;4.38;;
83141;SDS011;75194;51.180;5.972;2024-01-30T11:27:00;12.32;;;4.50;;
83141;SDS011;75194;51.180;5.972;2024-01-30T11:29:28;10.57;;;3.83;;
83141;SDS011;75194;51.180;5.972;2024-01-30T11:31:54;10.90;;;4.28;;
83141;SDS011;75194;51.180;5.972;2024-01-30T11:34:21;11.73;;;4.18;;
83141;SDS011;75194;51.180;5.972;2024-01-30T11:36:48;13.35;;;4.40;;
83141;SDS011;75194;51.180;5.972;2024-01-30T11:39:42;10.20;;;4.00;;
83141;SDS011;75194;51.180;5.972;2024-01-30T11:42:09;10.48;;;4.30;;
83141;SDS011;75194;51.180;5.972;2024-01-30T11:44:35;9.98;;;4.00;;
83141;SDS011;75194;51.180;5.972;2024-01-30T11:47:01;12.55;;;4.22;;
83141;SDS011;75194;51.180;5.972;2024-01-30T11:49:28;11.32;;;4.45;;
83141;SDS011;75194;51.180;5.972;2024-01-30T11:51:54;11.82;;;4.40;;
83141;SDS011;75194;51.180;5.972;2024-01-30T11:54:20;12.07;;;4.43;;
83141;SDS011;75194;51.180;5.972;2024-01-30T11:56:45;10.93;;;4.07;;
83141;SDS011;75194;51.180;5.972;2024-01-30T11:59:11;11.63;;;4.30;;
83141;SDS011;75194;51.180;5.972;2024-01-30T12:01:37;11.45;;;4.22;;
83141;SDS011;75194;51.180;5.972;2024-01-30T12:04:02;10.00;;;4.10;;
83141;SDS011;75194;51.180;5.972;2024-01-30T12:06:33;11.10;;;4.05;;
83141;SDS011;75194;51.180;5.972;2024-01-30T12:08:59;14.13;;;4.82;;
83141;SDS011;75194;51.180;5.972;2024-01-30T12:11:30;13.23;;;4.50;;
83141;SDS011;75194;51.180;5.972;2024-01-30T12:13:56;12.65;;;4.32;;
83141;SDS011;75194;51.180;5.972;2024-01-30T12:16:22;16.85;;;5.47;;
83141;SDS011;75194;51.180;5.972;2024-01-30T12:18:48;12.32;;;4.88;;
83141;SDS011;75194;51.180;5.972;2024-01-30T12:21:17;13.68;;;4.97;;
83141;SDS011;75194;51.180;5.972;2024-01-30T12:23:45;11.93;;;4.43;;
83141;SDS011;75194;51.180;5.972;2024-01-30T12:26:11;10.85;;;4.45;;
83141;SDS011;75194;51.180;5.972;2024-01-30T12:28:47;11.63;;;5.05;;
83141;SDS011;75194;51.180;5.972;2024-01-30T12:31:14;11.45;;;4.30;;
83141;SDS011;75194;51.180;5.972;2024-01-30T12:33:39;13.95;;;4.63;;
83141;SDS011;75194;51.180;5.972;2024-01-30T12:36:05;12.15;;;4.60;;
83141;SDS011;75194;51.180;5.972;2024-01-30T12:38:31;12.27;;;4.88;;
83141;SDS011;75194;51.180;5.972;2024-01-30T12:40:57;11.80;;;4.63;;
83141;SDS011;75194;51.180;5.972;2024-01-30T12:43:23;10.07;;;4.70;;
83141;SDS011;75194;51.180;5.972;2024-01-30T12:45:51;10.93;;;5.25;;
83141;SDS011;75194;51.180;5.972;2024-01-30T12:48:17;9.93;;;4.47;;
83141;SDS011;75194;51.180;5.972;2024-01-30T12:50:43;9.77;;;4.65;;
83141;SDS011;75194;51.180;5.972;2024-01-30T12:53:09;13.15;;;5.45;;
83141;SDS011;75194;51.180;5.972;2024-01-30T12:55:35;10.57;;;4.57;;
83141;SDS011;75194;51.180;5.972;2024-01-30T12:58:00;15.25;;;5.32;;
83141;SDS011;75194;51.180;5.972;2024-01-30T13:00:26;11.75;;;4.80;;
83141;SDS011;75194;51.180;5.972;2024-01-30T13:02:52;11.65;;;4.93;;
83141;SDS011;75194;51.180;5.972;2024-01-30T13:05:17;13.15;;;5.88;;
83141;SDS011;75194;51.180;5.972;2024-01-30T13:07:43;12.15;;;5.45;;
83141;SDS011;75194;51.180;5.972;2024-01-30T13:10:09;11.40;;;5.22;;
83141;SDS011;75194;51.180;5.972;2024-01-30T13:12:35;11.20;;;4.65;;
83141;SDS011;75194;51.180;5.972;2024-01-30T13:15:02;10.25;;;5.05;;
83141;SDS011;75194;51.180;5.972;2024-01-30T13:17:29;12.77;;;5.88;;
83141;SDS011;75194;51.180;5.972;2024-01-30T13:19:55;11.20;;;5.15;;
83141;SDS011;75194;51.180;5.972;2024-01-30T13:22:21;16.25;;;6.75;;
83141;SDS011;75194;51.180;5.972;2024-01-30T13:24:47;12.73;;;5.28;;
83141;SDS011;75194;51.180;5.972;2024-01-30T13:27:13;14.23;;;5.38;;
83141;SDS011;75194;51.180;5.972;2024-01-30T13:29:38;11.60;;;5.20;;
83141;SDS011;75194;51.180;5.972;2024-01-30T13:32:04;13.60;;;4.72;;
83141;SDS011;75194;51.180;5.972;2024-01-30T13:34:30;11.27;;;4.35;;
83141;SDS011;75194;51.180;5.972;2024-01-30T13:36:56;12.63;;;4.60;;
83141;SDS011;75194;51.180;5.972;2024-01-30T13:39:22;11.63;;;4.68;;
83141;SDS011;75194;51.180;5.972;2024-01-30T13:41:48;9.75;;;3.75;;
83141;SDS011;75194;51.180;5.972;2024-01-30T13:44:15;12.95;;;4.88;;
83141;SDS011;75194;51.180;5.972;2024-01-30T13:46:42;9.60;;;3.60;;
83141;SDS011;75194;51.180;5.972;2024-01-30T13:49:08;11.88;;;3.72;;
83141;SDS011;75194;51.180;5.972;2024-01-30T13:51:34;9.90;;;3.60;;
83141;SDS011;75194;51.180;5.972;2024-01-30T13:53:59;10.30;;;3.33;;
83141;SDS011;75194;51.180;5.972;2024-01-30T13:56:25;8.90;;;2.80;;
83141;SDS011;75194;51.180;5.972;2024-01-30T13:58:51;9.15;;;2.65;;
83141;SDS011;75194;51.180;5.972;2024-01-30T14:01:18;6.47;;;2.17;;
83141;SDS011;75194;51.180;5.972;2024-01-30T14:03:44;6.72;;;2.03;;
83141;SDS011;75194;51.180;5.972;2024-01-30T14:06:10;7.80;;;2.10;;
83141;SDS011;75194;51.180;5.972;2024-01-30T14:08:36;9.02;;;2.05;;
83141;SDS011;75194;51.180;5.972;2024-01-30T14:11:02;6.90;;;1.83;;
83141;SDS011;75194;51.180;5.972;2024-01-30T14:13:28;8.85;;;1.70;;
83141;SDS011;75194;51.180;5.972;2024-01-30T14:15:55;8.45;;;1.70;;
83141;SDS011;75194;51.180;5.972;2024-01-30T14:18:21;6.53;;;1.50;;
83141;SDS011;75194;51.180;5.972;2024-01-30T14:20:47;5.00;;;1.30;;
83141;SDS011;75194;51.180;5.972;2024-01-30T14:23:13;5.95;;;1.40;;
83141;SDS011;75194;51.180;5.972;2024-01-30T14:25:39;6.03;;;1.67;;
83141;SDS011;75194;51.180;5.972;2024-01-30T14:28:05;5.93;;;1.38;;
83141;SDS011;75194;51.180;5.972;2024-01-30T14:30:31;5.82;;;1.08;;
83141;SDS011;75194;51.180;5.972;2024-01-30T14:32:56;4.75;;;1.20;;
83141;SDS011;75194;51.180;5.972;2024-01-30T14:35:22;5.35;;;1.15;;
83141;SDS011;75194;51.180;5.972;2024-01-30T14:37:48;4.80;;;1.63;;
83141;SDS011;75194;51.180;5.972;2024-01-30T14:40:14;3.15;;;0.68;;
83141;SDS011;75194;51.180;5.972;2024-01-30T14:42:40;5.13;;;1.10;;